sensor_id;sensor_type;location;lat;lon;timestamp;P1;durP1;ratioP1;P2;durP2;ratioP2
42754;SDS011;28407;51.830;5.684;2023-10-09T18:03:28;4.35;;;2.30;;
42754;SDS011;28407;51.830;5.684;2023-10-09T18:05:30;4.07;;;2.22;;
42754;SDS011;28407;51.830;5.684;2023-10-09T18:07:30;6.38;;;2.47;;
42754;SDS011;28407;51.830;5.684;2023-10-09T18:09:31;8.15;;;3.05;;
42754;SDS011;28407;51.830;5.684;2023-10-09T18:11:32;5.20;;;3.13;;
42754;SDS011;28407;51.830;5.684;2023-10-09T18:13:33;5.50;;;2.38;;
42754;SDS011;28407;51.830;5.684;2023-10-09T18:15:36;6.18;;;2.88;;
42754;SDS011;28407;51.830;5.684;2023-10-09T18:21:41;5.43;;;2.60;;
42754;SDS011;28407;51.830;5.684;2023-10-09T18:23:42;3.88;;;2.25;;
42754;SDS011;28407;51.830;5.684;2023-10-09T18:25:45;6.30;;;2.95;;
42754;SDS011;28407;51.830;5.684;2023-10-09T18:27:49;4.65;;;3.28;;
42754;SDS011;28407;51.830;5.684;2023-10-09T18:29:50;6.47;;;3.25;;
42754;SDS011;28407;51.830;5.684;2023-10-09T18:31:51;6.47;;;2.65;;
42754;SDS011;28407;51.830;5.684;2023-10-09T18:33:52;4.07;;;2.55;;
42754;SDS011;28407;51.830;5.684;2023-10-09T18:35:52;4.97;;;2.78;;
42754;SDS011;28407;51.830;5.684;2023-10-09T18:37:53;3.55;;;2.45;;
42754;SDS011;28407;51.830;5.684;2023-10-09T18:39:58;3.97;;;2.60;;
42754;SDS011;28407;51.830;5.684;2023-10-09T18:41:59;4.18;;;2.42;;
42754;SDS011;28407;51.830;5.684;2023-10-09T18:44:00;4.00;;;2.63;;
42754;SDS011;28407;51.830;5.684;2023-10-09T18:46:04;3.90;;;2.70;;
42754;SDS011;28407;51.830;5.684;2023-10-09T18:48:09;5.75;;;3.17;;
42754;SDS011;28407;51.830;5.684;2023-10-09T18:50:17;4.60;;;3.03;;
42754;SDS011;28407;51.830;5.684;2023-10-09T18:52:18;6.63;;;3.65;;
42754;SDS011;28407;51.830;5.684;2023-10-09T18:54:20;6.72;;;3.47;;
42754;SDS011;28407;51.830;5.684;2023-10-09T18:56:23;5.38;;;3.10;;
42754;SDS011;28407;51.830;5.684;2023-10-09T18:58:24;4.50;;;3.17;;
42754;SDS011;28407;51.830;5.684;2023-10-09T19:00:25;5.75;;;3.05;;
42754;SDS011;28407;51.830;5.684;2023-10-09T19:02:30;4.10;;;2.70;;
42754;SDS011;28407;51.830;5.684;2023-10-09T19:04:31;5.38;;;3.45;;
42754;SDS011;28407;51.830;5.684;2023-10-09T19:06:32;5.50;;;2.70;;
42754;SDS011;28407;51.830;5.684;2023-10-09T19:08:33;4.95;;;2.75;;
42754;SDS011;28407;51.830;5.684;2023-10-09T19:10:34;6.53;;;2.97;;
42754;SDS011;28407;51.830;5.684;2023-10-09T19:12:37;6.65;;;3.20;;
42754;SDS011;28407;51.830;5.684;2023-10-09T19:14:37;5.63;;;2.97;;
42754;SDS011;28407;51.830;5.684;2023-10-09T19:16:38;6.22;;;3.22;;
42754;SDS011;28407;51.830;5.684;2023-10-09T19:18:39;6.40;;;3.42;;
42754;SDS011;28407;51.830;5.684;2023-10-09T19:20:39;7.35;;;4.22;;
42754;SDS011;28407;51.830;5.684;2023-10-09T19:22:42;4.45;;;3.03;;
42754;SDS011;28407;51.830;5.684;2023-10-09T19:24:43;5.70;;;4.50;;
42754;SDS011;28407;51.830;5.684;2023-10-09T19:26:45;5.80;;;3.30;;
42754;SDS011;28407;51.830;5.684;2023-10-09T19:28:46;4.72;;;2.88;;
42754;SDS011;28407;51.830;5.684;2023-10-09T19:30:47;7.65;;;3.55;;
42754;SDS011;28407;51.830;5.684;2023-10-09T19:32:49;6.13;;;3.70;;
42754;SDS011;28407;51.830;5.684;2023-10-09T19:34:50;5.25;;;3.53;;
42754;SDS011;28407;51.830;5.684;2023-10-09T19:36:51;4.95;;;3.00;;
42754;SDS011;28407;51.830;5.684;2023-10-09T19:38:51;6.57;;;3.28;;
42754;SDS011;28407;51.830;5.684;2023-10-09T19:40:52;5.30;;;3.10;;
42754;SDS011;28407;51.830;5.684;2023-10-09T19:42:53;4.22;;;2.78;;
42754;SDS011;28407;51.830;5.684;2023-10-09T19:44:53;3.72;;;2.53;;
42754;SDS011;28407;51.830;5.684;2023-10-09T19:46:54;6.38;;;2.83;;
42754;SDS011;28407;51.830;5.684;2023-10-09T19:48:55;6.03;;;2.97;;
42754;SDS011;28407;51.830;5.684;2023-10-09T19:50:59;4.25;;;2.70;;
42754;SDS011;28407;51.830;5.684;2023-10-09T19:53:03;4.25;;;2.47;;
42754;SDS011;28407;51.830;5.684;2023-10-09T19:55:03;5.65;;;3.30;;
42754;SDS011;28407;51.830;5.684;2023-10-09T19:57:06;4.97;;;3.20;;
42754;SDS011;28407;51.830;5.684;2023-10-09T19:59:07;5.00;;;2.90;;
42754;SDS011;28407;51.830;5.684;2023-10-09T20:01:09;5.35;;;3.53;;
42754;SDS011;28407;51.830;5.684;2023-10-09T20:03:11;3.90;;;2.90;;
42754;SDS011;28407;51.830;5.684;2023-10-09T20:05:11;4.45;;;2.70;;
42754;SDS011;28407;51.830;5.684;2023-10-09T20:07:15;4.35;;;3.13;;
42754;SDS011;28407;51.830;5.684;2023-10-09T20:09:19;5.63;;;3.08;;
42754;SDS011;28407;51.830;5.684;2023-10-09T20:11:20;4.70;;;2.47;;
42754;SDS011;28407;51.830;5.684;2023-10-09T20:13:22;5.55;;;3.10;;
42754;SDS011;28407;51.830;5.684;2023-10-09T20:15:23;9.43;;;2.97;;
42754;SDS011;28407;51.830;5.684;2023-10-09T20:17:25;3.92;;;2.75;;
42754;SDS011;28407;51.830;5.684;2023-10-09T20:19:26;6.72;;;3.05;;
42754;SDS011;28407;51.830;5.684;2023-10-09T20:21:26;6.63;;;3.70;;
42754;SDS011;28407;51.830;5.684;2023-10-09T20:23:27;3.85;;;2.55;;
42754;SDS011;28407;51.830;5.684;2023-10-09T20:25:27;5.55;;;3.35;;
42754;SDS011;28407;51.830;5.684;2023-10-09T20:27:29;6.38;;;3.10;;
42754;SDS011;28407;51.830;5.684;2023-10-09T20:29:33;5.90;;;3.70;;
42754;SDS011;28407;51.830;5.684;2023-10-09T20:31:35;5.30;;;2.90;;
42754;SDS011;28407;51.830;5.684;2023-10-09T20:33:37;5.03;;;2.85;;
42754;SDS011;28407;51.830;5.684;2023-10-09T20:35:38;4.22;;;2.80;;
42754;SDS011;28407;51.830;5.684;2023-10-09T20:37:42;4.43;;;2.80;;
42754;SDS011;28407;51.830;5.684;2023-10-09T20:39:47;4.60;;;2.88;;
42754;SDS011;28407;51.830;5.684;2023-10-09T20:43:50;5.13;;;3.00;;
42754;SDS011;28407;51.830;5.684;2023-10-09T20:45:52;3.97;;;2.67;;
42754;SDS011;28407;51.830;5.684;2023-10-09T20:47:54;5.53;;;3.42;;
42754;SDS011;28407;51.830;5.684;2023-10-09T20:49:55;4.10;;;2.72;;
42754;SDS011;28407;51.830;5.684;2023-10-09T20:51:56;5.35;;;3.13;;
42754;SDS011;28407;51.830;5.684;2023-10-09T20:53:57;5.85;;;3.67;;
42754;SDS011;28407;51.830;5.684;2023-10-09T20:55:58;6.13;;;3.25;;
42754;SDS011;28407;51.830;5.684;2023-10-09T20:57:59;5.57;;;3.22;;
42754;SDS011;28407;51.830;5.684;2023-10-09T21:00:00;6.75;;;3.45;;
42754;SDS011;28407;51.830;5.684;2023-10-09T21:02:00;4.47;;;2.83;;
42754;SDS011;28407;51.830;5.684;2023-10-09T21:04:03;6.05;;;3.33;;
42754;SDS011;28407;51.830;5.684;2023-10-09T21:06:04;3.92;;;2.85;;
42754;SDS011;28407;51.830;5.684;2023-10-09T21:08:05;6.25;;;3.45;;
42754;SDS011;28407;51.830;5.684;2023-10-09T21:10:07;6.28;;;3.47;;
42754;SDS011;28407;51.830;5.684;2023-10-09T21:12:07;7.07;;;3.38;;
42754;SDS011;28407;51.830;5.684;2023-10-09T21:14:08;6.40;;;3.20;;
42754;SDS011;28407;51.830;5.684;2023-10-09T21:16:11;3.88;;;3.10;;
42754;SDS011;28407;51.830;5.684;2023-10-09T21:18:12;5.38;;;3.50;;
42754;SDS011;28407;51.830;5.684;2023-10-09T21:20:14;4.68;;;3.45;;
42754;SDS011;28407;51.830;5.684;2023-10-09T21:22:17;6.05;;;3.80;;
42754;SDS011;28407;51.830;5.684;2023-10-09T21:24:18;5.20;;;4.05;;
42754;SDS011;28407;51.830;5.684;2023-10-09T21:26:20;4.75;;;3.50;;
42754;SDS011;28407;51.830;5.684;2023-10-09T21:28:22;6.05;;;3.92;;
42754;SDS011;28407;51.830;5.684;2023-10-09T21:30:23;5.50;;;4.22;;
42754;SDS011;28407;51.830;5.684;2023-10-09T21:32:24;5.55;;;3.80;;
42754;SDS011;28407;51.830;5.684;2023-10-09T21:34:27;6.43;;;3.60;;
42754;SDS011;28407;51.830;5.684;2023-10-09T21:36:27;4.63;;;3.58;;
42754;SDS011;28407;51.830;5.684;2023-10-09T21:38:28;4.35;;;3.55;;
42754;SDS011;28407;51.830;5.684;2023-10-09T21:40:29;5.85;;;4.38;;
42754;SDS011;28407;51.830;5.684;2023-10-09T21:42:30;6.20;;;3.88;;
42754;SDS011;28407;51.830;5.684;2023-10-09T21:44:30;5.38;;;3.63;;
42754;SDS011;28407;51.830;5.684;2023-10-09T21:46:31;5.20;;;4.03;;
42754;SDS011;28407;51.830;5.684;2023-10-09T21:48:32;6.28;;;4.40;;
42754;SDS011;28407;51.830;5.684;2023-10-09T21:50:32;6.53;;;4.38;;
42754;SDS011;28407;51.830;5.684;2023-10-09T21:52:37;5.72;;;4.70;;
42754;SDS011;28407;51.830;5.684;2023-10-09T21:54:38;9.25;;;5.35;;
42754;SDS011;28407;51.830;5.684;2023-10-09T21:56:39;7.40;;;4.65;;
42754;SDS011;28407;51.830;5.684;2023-10-09T21:58:39;6.10;;;4.32;;
42754;SDS011;28407;51.830;5.684;2023-10-09T22:00:40;5.82;;;4.97;;
42754;SDS011;28407;51.830;5.684;2023-10-09T22:02:47;6.38;;;4.75;;
42754;SDS011;28407;51.830;5.684;2023-10-09T22:04:49;6.78;;;4.22;;
42754;SDS011;28407;51.830;5.684;2023-10-09T22:06:50;7.40;;;4.05;;
42754;SDS011;28407;51.830;5.684;2023-10-09T22:08:52;6.47;;;4.65;;
42754;SDS011;28407;51.830;5.684;2023-10-09T22:10:52;7.50;;;4.53;;
42754;SDS011;28407;51.830;5.684;2023-10-09T22:12:53;7.90;;;5.43;;
42754;SDS011;28407;51.830;5.684;2023-10-09T22:14:54;6.70;;;5.03;;
42754;SDS011;28407;51.830;5.684;2023-10-09T22:16:55;6.03;;;4.80;;
42754;SDS011;28407;51.830;5.684;2023-10-09T22:18:56;6.93;;;4.45;;
42754;SDS011;28407;51.830;5.684;2023-10-09T22:20:59;6.72;;;5.07;;
42754;SDS011;28407;51.830;5.684;2023-10-09T22:23:05;7.97;;;5.25;;
42754;SDS011;28407;51.830;5.684;2023-10-09T22:25:13;5.50;;;4.53;;
42754;SDS011;28407;51.830;5.684;2023-10-09T22:27:14;6.10;;;4.57;;
42754;SDS011;28407;51.830;5.684;2023-10-09T22:29:24;7.47;;;5.15;;
42754;SDS011;28407;51.830;5.684;2023-10-09T22:31:27;6.10;;;4.95;;
42754;SDS011;28407;51.830;5.684;2023-10-09T22:33:28;6.05;;;4.57;;
42754;SDS011;28407;51.830;5.684;2023-10-09T22:35:48;6.47;;;4.68;;
42754;SDS011;28407;51.830;5.684;2023-10-09T22:37:48;7.18;;;6.00;;
42754;SDS011;28407;51.830;5.684;2023-10-09T22:39:49;7.32;;;4.85;;
42754;SDS011;28407;51.830;5.684;2023-10-09T22:41:51;7.88;;;5.13;;
42754;SDS011;28407;51.830;5.684;2023-10-09T22:43:54;8.23;;;5.20;;
42754;SDS011;28407;51.830;5.684;2023-10-09T22:45:55;7.35;;;4.80;;
42754;SDS011;28407;51.830;5.684;2023-10-09T22:47:57;8.07;;;5.18;;
42754;SDS011;28407;51.830;5.684;2023-10-09T22:49:58;6.93;;;4.75;;
42754;SDS011;28407;51.830;5.684;2023-10-09T22:52:17;7.18;;;4.95;;
42754;SDS011;28407;51.830;5.684;2023-10-09T22:54:23;8.18;;;6.10;;
42754;SDS011;28407;51.830;5.684;2023-10-09T22:56:33;9.25;;;6.80;;
42754;SDS011;28407;51.830;5.684;2023-10-09T22:58:35;9.25;;;5.85;;
42754;SDS011;28407;51.830;5.684;2023-10-09T23:00:38;6.80;;;5.43;;
42754;SDS011;28407;51.830;5.684;2023-10-09T23:02:48;6.57;;;4.82;;
42754;SDS011;28407;51.830;5.684;2023-10-09T23:04:56;7.88;;;5.40;;
42754;SDS011;28407;51.830;5.684;2023-10-09T23:07:04;7.40;;;5.47;;
42754;SDS011;28407;51.830;5.684;2023-10-09T23:09:14;7.35;;;5.63;;
42754;SDS011;28407;51.830;5.684;2023-10-09T23:11:15;8.27;;;5.57;;
42754;SDS011;28407;51.830;5.684;2023-10-09T23:13:25;7.72;;;5.95;;
42754;SDS011;28407;51.830;5.684;2023-10-09T23:15:34;6.55;;;4.90;;
42754;SDS011;28407;51.830;5.684;2023-10-09T23:17:35;9.77;;;6.03;;
42754;SDS011;28407;51.830;5.684;2023-10-09T23:19:47;5.70;;;4.70;;
42754;SDS011;28407;51.830;5.684;2023-10-09T23:22:00;8.05;;;5.85;;
42754;SDS011;28407;51.830;5.684;2023-10-09T23:24:14;8.88;;;6.15;;
42754;SDS011;28407;51.830;5.684;2023-10-09T23:26:27;6.25;;;4.80;;
42754;SDS011;28407;51.830;5.684;2023-10-09T23:28:32;8.52;;;5.93;;
42754;SDS011;28407;51.830;5.684;2023-10-09T23:30:39;8.35;;;5.90;;
42754;SDS011;28407;51.830;5.684;2023-10-09T23:32:42;6.65;;;5.13;;
42754;SDS011;28407;51.830;5.684;2023-10-09T23:34:52;7.13;;;5.28;;
42754;SDS011;28407;51.830;5.684;2023-10-09T23:37:00;7.28;;;5.85;;
42754;SDS011;28407;51.830;5.684;2023-10-09T23:39:04;6.88;;;5.65;;
42754;SDS011;28407;51.830;5.684;2023-10-09T23:41:12;9.77;;;6.70;;
42754;SDS011;28407;51.830;5.684;2023-10-09T23:43:13;7.85;;;5.32;;
42754;SDS011;28407;51.830;5.684;2023-10-09T23:45:29;8.10;;;5.90;;
42754;SDS011;28407;51.830;5.684;2023-10-09T23:47:33;7.47;;;5.82;;
42754;SDS011;28407;51.830;5.684;2023-10-09T23:49:37;10.93;;;5.70;;
42754;SDS011;28407;51.830;5.684;2023-10-09T23:51:38;7.32;;;6.05;;
42754;SDS011;28407;51.830;5.684;2023-10-09T23:53:39;7.95;;;6.45;;
42754;SDS011;28407;51.830;5.684;2023-10-09T23:55:46;8.55;;;5.72;;
42754;SDS011;28407;51.830;5.684;2023-10-09T23:57:50;7.47;;;5.85;;
42754;SDS011;28407;51.830;5.684;2023-10-09T23:59:57;9.55;;;6.45;;
